Página principal
METAR-TAF:

METAR-TAF

Aeroportos :

Guelmim, Marrocos

latitude: 29-01-00N, longitude: 10-04-04W, altura: 301 m

Observação actual do tempo

O boletim foi feito há 8 horas e 44 minutos, às 14:10 UTC
Vento 22 kt de nor-nordeste com rajadas de 33 kt
Temperatura 18°C
Humidade 42%
Pressão 1011 hPa
Visibilidade: 3000 m
Poucas nuvensa uma altura de 1600 ft
areia

METAR: GMAG 151410Z 02022G33KT 3000 SA FEW016 18/05 Q1011 M2

Hora: 22:54 (22:54 UTC)

Previsão

O boletim foi feito há 5 horas e 54 minutos, às 17:00 UTC
Previsão válida de 15 às 18 UTC a 16 às 24 UTC
Vento 19 kt de norte
Visibilidade 10 km ou mais
sem nuvens abaixo de 1500 metros e sem cumulonimbus

TAF: GMAG 151700Z 1518/1624 01019KT CAVOK

Observações e previsões do tempo de mais de 4000 aeroportos (mensagens METAR e TAF).

As estações disponíveis são os pontos amarelos e vermelhos sobre o mapa.

Mova o rato sobre o mapa para ver o nome da estação.

Depois clique no ponto para visualizar as observações e previsões meteorológicas.

Para alterar o mapa : clique nos botões verdes com uma cruz preta para aumentar o zoom; no botão verde com uma pitada de zoom; ou nas setas verdes para mapas adjacentes.


METAR-TAF: